sensor_id;sensor_type;location;lat;lon;timestamp;pressure;altitude;pressure_sealevel;temperature;humidity
60918;BME280;46792;38.854;-9.384;2022-11-18T00:01:58;99371.31;;;14.69;98.75
60918;BME280;46792;38.854;-9.384;2022-11-18T00:03:59;99359.53;;;14.54;94.18
60918;BME280;46792;38.854;-9.384;2022-11-18T00:05:59;99354.78;;;14.46;93.28
60918;BME280;46792;38.854;-9.384;2022-11-18T00:08:00;99350.75;;;14.63;92.91
60918;BME280;46792;38.854;-9.384;2022-11-18T00:10:01;99345.97;;;14.54;92.84
60918;BME280;46792;38.854;-9.384;2022-11-18T00:12:01;99352.03;;;14.65;93.03
60918;BME280;46792;38.854;-9.384;2022-11-18T00:14:23;99365.41;;;14.62;95.62
60918;BME280;46792;38.854;-9.384;2022-11-18T00:16:26;99372.13;;;14.50;98.94
60918;BME280;46792;38.854;-9.384;2022-11-18T00:18:27;99378.41;;;14.45;100.00
60918;BME280;46792;38.854;-9.384;2022-11-18T00:20:27;99377.00;;;14.29;100.00
60918;BME280;46792;38.854;-9.384;2022-11-18T00:22:28;99377.47;;;14.17;100.00
60918;BME280;46792;38.854;-9.384;2022-11-18T00:24:29;99374.88;;;14.07;100.00
60918;BME280;46792;38.854;-9.384;2022-11-18T00:26:29;99373.09;;;13.97;100.00
60918;BME280;46792;38.854;-9.384;2022-11-18T00:28:30;99385.19;;;14.05;100.00
60918;BME280;46792;38.854;-9.384;2022-11-18T00:30:31;99388.22;;;14.03;100.00
60918;BME280;46792;38.854;-9.384;2022-11-18T00:32:32;99385.81;;;14.02;100.00
60918;BME280;46792;38.854;-9.384;2022-11-18T00:34:54;99375.47;;;14.04;100.00
60918;BME280;46792;38.854;-9.384;2022-11-18T00:36:54;99386.19;;;14.14;100.00
60918;BME280;46792;38.854;-9.384;2022-11-18T00:38:55;99384.00;;;14.16;100.00
60918;BME280;46792;38.854;-9.384;2022-11-18T00:41:26;99391.56;;;14.19;100.00
60918;BME280;46792;38.854;-9.384;2022-11-18T00:43:47;99386.16;;;13.95;100.00
60918;BME280;46792;38.854;-9.384;2022-11-18T00:45:48;99384.38;;;13.85;100.00
60918;BME280;46792;38.854;-9.384;2022-11-18T00:48:07;99392.00;;;13.83;100.00
60918;BME280;46792;38.854;-9.384;2022-11-18T00:53:04;99384.38;;;13.85;100.00
60918;BME280;46792;38.854;-9.384;2022-11-18T00:57:43;99367.56;;;13.83;100.00
60918;BME280;46792;38.854;-9.384;2022-11-18T00:59:43;99360.00;;;13.80;100.00
60918;BME280;46792;38.854;-9.384;2022-11-18T01:01:44;99353.44;;;13.86;100.00
60918;BME280;46792;38.854;-9.384;2022-11-18T01:03:45;99356.63;;;13.88;100.00
60918;BME280;46792;38.854;-9.384;2022-11-18T01:05:46;99358.03;;;13.86;100.00
60918;BME280;46792;38.854;-9.384;2022-11-18T01:07:47;99338.00;;;13.81;100.00
60918;BME280;46792;38.854;-9.384;2022-11-18T01:09:47;99355.31;;;13.86;100.00
60918;BME280;46792;38.854;-9.384;2022-11-18T01:11:48;99353.66;;;13.90;100.00
60918;BME280;46792;38.854;-9.384;2022-11-18T01:14:07;99368.53;;;13.92;100.00
60918;BME280;46792;38.854;-9.384;2022-11-18T01:16:08;99367.25;;;14.09;100.00
60918;BME280;46792;38.854;-9.384;2022-11-18T01:18:09;99366.31;;;14.19;100.00
60918;BME280;46792;38.854;-9.384;2022-11-18T01:20:10;99361.19;;;14.17;100.00
60918;BME280;46792;38.854;-9.384;2022-11-18T01:24:31;99352.72;;;13.99;100.00
60918;BME280;46792;38.854;-9.384;2022-11-18T01:26:31;99345.53;;;14.09;100.00
60918;BME280;46792;38.854;-9.384;2022-11-18T01:28:32;99349.69;;;14.01;100.00
60918;BME280;46792;38.854;-9.384;2022-11-18T01:30:37;99353.75;;;14.04;100.00
60918;BME280;46792;38.854;-9.384;2022-11-18T01:32:38;99351.31;;;14.02;100.00
60918;BME280;46792;38.854;-9.384;2022-11-18T01:34:56;99341.34;;;13.97;100.00
60918;BME280;46792;38.854;-9.384;2022-11-18T01:36:57;99334.44;;;13.86;100.00
60918;BME280;46792;38.854;-9.384;2022-11-18T01:38:58;99337.44;;;13.84;100.00
60918;BME280;46792;38.854;-9.384;2022-11-18T01:40:59;99327.44;;;13.80;100.00
60918;BME280;46792;38.854;-9.384;2022-11-18T01:43:00;99333.19;;;13.78;100.00
60918;BME280;46792;38.854;-9.384;2022-11-18T01:45:14;99326.41;;;13.76;100.00
60918;BME280;46792;38.854;-9.384;2022-11-18T01:47:19;99330.31;;;13.69;100.00
60918;BME280;46792;38.854;-9.384;2022-11-18T01:49:20;99327.84;;;13.68;100.00
60918;BME280;46792;38.854;-9.384;2022-11-18T01:51:28;99333.81;;;13.70;100.00
60918;BME280;46792;38.854;-9.384;2022-11-18T01:53:43;99330.81;;;13.72;100.00
60918;BME280;46792;38.854;-9.384;2022-11-18T01:55:47;99320.72;;;13.77;100.00
60918;BME280;46792;38.854;-9.384;2022-11-18T01:57:53;99332.72;;;13.71;100.00
60918;BME280;46792;38.854;-9.384;2022-11-18T01:59:58;99332.19;;;13.69;100.00
60918;BME280;46792;38.854;-9.384;2022-11-18T02:02:04;99335.66;;;13.75;100.00
60918;BME280;46792;38.854;-9.384;2022-11-18T02:04:06;99335.94;;;13.73;100.00
60918;BME280;46792;38.854;-9.384;2022-11-18T02:06:09;99346.06;;;13.67;100.00
60918;BME280;46792;38.854;-9.384;2022-11-18T02:08:10;99337.97;;;13.62;100.00
60918;BME280;46792;38.854;-9.384;2022-11-18T02:10:20;99334.28;;;13.53;100.00
60918;BME280;46792;38.854;-9.384;2022-11-18T02:12:20;99334.38;;;13.43;100.00
60918;BME280;46792;38.854;-9.384;2022-11-18T02:14:25;99342.25;;;13.44;100.00
60918;BME280;46792;38.854;-9.384;2022-11-18T02:19:00;99337.56;;;13.50;100.00
60918;BME280;46792;38.854;-9.384;2022-11-18T02:21:36;99345.22;;;13.43;100.00
60918;BME280;46792;38.854;-9.384;2022-11-18T02:30:16;99328.41;;;13.89;100.00
60918;BME280;46792;38.854;-9.384;2022-11-18T02:32:23;99335.06;;;13.78;100.00
60918;BME280;46792;38.854;-9.384;2022-11-18T02:36:48;99340.91;;;13.66;100.00
60918;BME280;46792;38.854;-9.384;2022-11-18T02:38:56;99346.06;;;13.67;100.00
60918;BME280;46792;38.854;-9.384;2022-11-18T02:41:03;99339.06;;;13.61;100.00
60918;BME280;46792;38.854;-9.384;2022-11-18T02:43:08;99331.66;;;13.67;100.00
60918;BME280;46792;38.854;-9.384;2022-11-18T02:45:14;99341.78;;;13.61;100.00
60918;BME280;46792;38.854;-9.384;2022-11-18T02:47:17;99340.69;;;13.62;100.00
60918;BME280;46792;38.854;-9.384;2022-11-18T02:49:23;99336.94;;;13.58;100.00
60918;BME280;46792;38.854;-9.384;2022-11-18T02:51:28;99338.84;;;13.58;100.00
60918;BME280;46792;38.854;-9.384;2022-11-18T02:53:32;99354.53;;;13.61;100.00
60918;BME280;46792;38.854;-9.384;2022-11-18T02:55:34;99353.94;;;13.64;100.00
60918;BME280;46792;38.854;-9.384;2022-11-18T02:57:38;99362.56;;;13.47;100.00
60918;BME280;46792;38.854;-9.384;2022-11-18T02:59:40;99364.34;;;13.27;100.00
60918;BME280;46792;38.854;-9.384;2022-11-18T03:01:40;99357.03;;;13.28;100.00
60918;BME280;46792;38.854;-9.384;2022-11-18T03:03:41;99359.56;;;13.19;100.00
60918;BME280;46792;38.854;-9.384;2022-11-18T03:05:46;99353.06;;;13.15;100.00
60918;BME280;46792;38.854;-9.384;2022-11-18T03:08:12;99360.97;;;13.11;100.00
60918;BME280;46792;38.854;-9.384;2022-11-18T03:10:15;99357.69;;;13.14;100.00
60918;BME280;46792;38.854;-9.384;2022-11-18T03:12:21;99355.56;;;13.11;100.00
60918;BME280;46792;38.854;-9.384;2022-11-18T03:17:00;99355.81;;;13.09;100.00
60918;BME280;46792;38.854;-9.384;2022-11-18T03:19:11;99356.84;;;13.19;100.00
60918;BME280;46792;38.854;-9.384;2022-11-18T03:21:25;99353.38;;;13.13;100.00
60918;BME280;46792;38.854;-9.384;2022-11-18T03:23:58;99359.59;;;13.14;100.00
60918;BME280;46792;38.854;-9.384;2022-11-18T03:26:06;99367.38;;;13.20;100.00
60918;BME280;46792;38.854;-9.384;2022-11-18T03:28:28;99360.06;;;13.21;100.00
60918;BME280;46792;38.854;-9.384;2022-11-18T03:30:31;99360.06;;;13.21;100.00
60918;BME280;46792;38.854;-9.384;2022-11-18T03:32:38;99358.47;;;13.20;100.00
60918;BME280;46792;38.854;-9.384;2022-11-18T03:34:46;99355.44;;;13.21;100.00
60918;BME280;46792;38.854;-9.384;2022-11-18T03:36:51;99353.59;;;13.17;100.00
60918;BME280;46792;38.854;-9.384;2022-11-18T03:38:57;99360.91;;;13.16;100.00
60918;BME280;46792;38.854;-9.384;2022-11-18T03:43:41;99350.16;;;13.35;100.00
60918;BME280;46792;38.854;-9.384;2022-11-18T03:45:46;99352.69;;;13.27;100.00
60918;BME280;46792;38.854;-9.384;2022-11-18T03:48:17;99343.75;;;13.26;100.00
60918;BME280;46792;38.854;-9.384;2022-11-18T03:50:22;99353.50;;;13.27;100.00
60918;BME280;46792;38.854;-9.384;2022-11-18T03:52:42;99357.69;;;13.14;100.00
60918;BME280;46792;38.854;-9.384;2022-11-18T03:54:46;99366.59;;;13.20;100.00
60918;BME280;46792;38.854;-9.384;2022-11-18T03:57:19;99383.97;;;13.14;100.00
60918;BME280;46792;38.854;-9.384;2022-11-18T03:59:32;99373.38;;;13.17;100.00
60918;BME280;46792;38.854;-9.384;2022-11-18T04:01:46;99379.09;;;13.16;100.00
60918;BME280;46792;38.854;-9.384;2022-11-18T04:03:48;99385.38;;;13.11;100.00
60918;BME280;46792;38.854;-9.384;2022-11-18T04:08:31;99381.31;;;13.08;100.00
60918;BME280;46792;38.854;-9.384;2022-11-18T04:10:38;99387.81;;;13.07;100.00
60918;BME280;46792;38.854;-9.384;2022-11-18T04:12:49;99380.81;;;13.06;100.00
60918;BME280;46792;38.854;-9.384;2022-11-18T04:14:53;99383.53;;;13.06;100.00
60918;BME280;46792;38.854;-9.384;2022-11-18T04:16:54;99377.03;;;13.02;100.00
60918;BME280;46792;38.854;-9.384;2022-11-18T04:18:55;99393.56;;;13.01;100.00
60918;BME280;46792;38.854;-9.384;2022-11-18T04:20:55;99394.28;;;13.12;100.00
60918;BME280;46792;38.854;-9.384;2022-11-18T04:27:54;99392.88;;;12.90;100.00
60918;BME280;46792;38.854;-9.384;2022-11-18T04:29:54;99390.94;;;12.90;100.00
60918;BME280;46792;38.854;-9.384;2022-11-18T04:31:55;99397.78;;;12.83;100.00
60918;BME280;46792;38.854;-9.384;2022-11-18T04:36:15;99388.03;;;12.82;100.00
60918;BME280;46792;38.854;-9.384;2022-11-18T04:38:34;99395.94;;;12.78;100.00
60918;BME280;46792;38.854;-9.384;2022-11-18T04:40:34;99399.72;;;12.77;100.00
60918;BME280;46792;38.854;-9.384;2022-11-18T04:42:35;99403.88;;;12.64;100.00
60918;BME280;46792;38.854;-9.384;2022-11-18T04:44:36;99410.66;;;12.61;100.00
60918;BME280;46792;38.854;-9.384;2022-11-18T04:46:36;99412.81;;;12.65;100.00
60918;BME280;46792;38.854;-9.384;2022-11-18T04:48:37;99419.03;;;12.65;99.16
60918;BME280;46792;38.854;-9.384;2022-11-18T04:50:37;99412.28;;;12.62;98.87
60918;BME280;46792;38.854;-9.384;2022-11-18T04:52:38;99413.84;;;12.69;98.03
60918;BME280;46792;38.854;-9.384;2022-11-18T04:54:38;99416.63;;;12.63;97.72
60918;BME280;46792;38.854;-9.384;2022-11-18T04:56:40;99407.94;;;12.67;97.12
60918;BME280;46792;38.854;-9.384;2022-11-18T04:58:44;99424.44;;;12.65;97.09
60918;BME280;46792;38.854;-9.384;2022-11-18T05:00:44;99420.34;;;12.68;97.27
60918;BME280;46792;38.854;-9.384;2022-11-18T05:02:45;99415.00;;;12.62;97.70
60918;BME280;46792;38.854;-9.384;2022-11-18T05:05:04;99426.06;;;12.66;97.98
60918;BME280;46792;38.854;-9.384;2022-11-18T05:07:24;99428.22;;;12.69;97.18
60918;BME280;46792;38.854;-9.384;2022-11-18T05:09:25;99431.13;;;12.78;96.77
60918;BME280;46792;38.854;-9.384;2022-11-18T05:11:26;99428.09;;;12.90;95.67
60918;BME280;46792;38.854;-9.384;2022-11-18T05:13:45;99433.78;;;12.88;95.92
60918;BME280;46792;38.854;-9.384;2022-11-18T05:15:46;99441.13;;;12.83;96.82
60918;BME280;46792;38.854;-9.384;2022-11-18T05:17:47;99429.72;;;12.86;96.91
60918;BME280;46792;38.854;-9.384;2022-11-18T05:19:47;99433.25;;;12.86;96.97
60918;BME280;46792;38.854;-9.384;2022-11-18T05:21:48;99429.72;;;12.86;96.99
60918;BME280;46792;38.854;-9.384;2022-11-18T05:23:49;99427.59;;;12.77;97.83
60918;BME280;46792;38.854;-9.384;2022-11-18T05:25:49;99435.72;;;12.77;98.25
60918;BME280;46792;38.854;-9.384;2022-11-18T05:28:08;99437.09;;;12.80;98.50
60918;BME280;46792;38.854;-9.384;2022-11-18T05:30:28;99427.59;;;12.83;97.28
60918;BME280;46792;38.854;-9.384;2022-11-18T05:32:28;99436.00;;;12.81;96.53
60918;BME280;46792;38.854;-9.384;2022-11-18T05:34:29;99444.16;;;12.76;95.95
60918;BME280;46792;38.854;-9.384;2022-11-18T05:36:30;99446.09;;;12.70;95.93
60918;BME280;46792;38.854;-9.384;2022-11-18T05:38:32;99445.25;;;12.70;95.63
60918;BME280;46792;38.854;-9.384;2022-11-18T05:40:51;99440.75;;;12.55;95.86
60918;BME280;46792;38.854;-9.384;2022-11-18T05:42:54;99431.56;;;12.56;95.46
60918;BME280;46792;38.854;-9.384;2022-11-18T05:45:13;99442.69;;;12.49;95.65
60918;BME280;46792;38.854;-9.384;2022-11-18T05:47:15;99453.53;;;12.49;96.09
60918;BME280;46792;38.854;-9.384;2022-11-18T05:49:15;99444.59;;;12.43;96.71
60918;BME280;46792;38.854;-9.384;2022-11-18T06:01:37;99466.34;;;12.78;98.63
60918;BME280;46792;38.854;-9.384;2022-11-18T06:03:40;99467.38;;;12.87;97.96
60918;BME280;46792;38.854;-9.384;2022-11-18T06:06:01;99476.31;;;12.88;96.23
60918;BME280;46792;38.854;-9.384;2022-11-18T06:08:02;99481.97;;;12.91;95.45
60918;BME280;46792;38.854;-9.384;2022-11-18T06:10:05;99480.34;;;12.96;94.96
60918;BME280;46792;38.854;-9.384;2022-11-18T06:12:27;99483.16;;;13.15;93.37
60918;BME280;46792;38.854;-9.384;2022-11-18T06:14:52;99487.50;;;13.16;92.62
60918;BME280;46792;38.854;-9.384;2022-11-18T06:16:57;99494.56;;;13.12;93.08
60918;BME280;46792;38.854;-9.384;2022-11-18T06:19:01;99491.09;;;13.06;93.18
60918;BME280;46792;38.854;-9.384;2022-11-18T06:21:03;99503.84;;;13.05;95.69
60918;BME280;46792;38.854;-9.384;2022-11-18T06:23:04;99506.59;;;13.00;97.15
60918;BME280;46792;38.854;-9.384;2022-11-18T06:25:24;99503.09;;;12.95;97.93
60918;BME280;46792;38.854;-9.384;2022-11-18T06:27:44;99505.50;;;13.01;98.36
60918;BME280;46792;38.854;-9.384;2022-11-18T06:29:45;99510.34;;;13.04;99.01
60918;BME280;46792;38.854;-9.384;2022-11-18T06:31:46;99509.25;;;13.05;99.50
60918;BME280;46792;38.854;-9.384;2022-11-18T06:33:46;99518.75;;;13.03;97.29
60918;BME280;46792;38.854;-9.384;2022-11-18T06:35:47;99517.72;;;12.93;93.87
60918;BME280;46792;38.854;-9.384;2022-11-18T06:37:48;99520.97;;;12.96;91.57
60918;BME280;46792;38.854;-9.384;2022-11-18T06:39:48;99530.97;;;13.00;88.95
60918;BME280;46792;38.854;-9.384;2022-11-18T06:41:51;99536.59;;;13.09;88.95
60918;BME280;46792;38.854;-9.384;2022-11-18T06:43:53;99534.66;;;13.15;89.02
60918;BME280;46792;38.854;-9.384;2022-11-18T06:46:00;99542.22;;;13.23;90.01
60918;BME280;46792;38.854;-9.384;2022-11-18T06:48:20;99534.03;;;13.28;89.82
60918;BME280;46792;38.854;-9.384;2022-11-18T06:50:20;99541.19;;;13.14;89.91
60918;BME280;46792;38.854;-9.384;2022-11-18T06:52:22;99539.13;;;12.95;89.62
60918;BME280;46792;38.854;-9.384;2022-11-18T06:54:22;99543.19;;;12.98;88.76
60918;BME280;46792;38.854;-9.384;2022-11-18T06:56:42;99545.38;;;12.90;88.91
60918;BME280;46792;38.854;-9.384;2022-11-18T06:58:42;99553.75;;;12.94;88.63
60918;BME280;46792;38.854;-9.384;2022-11-18T07:00:43;99554.88;;;12.88;89.22
60918;BME280;46792;38.854;-9.384;2022-11-18T07:02:43;99568.44;;;12.88;88.01
60918;BME280;46792;38.854;-9.384;2022-11-18T07:04:44;99559.78;;;12.86;85.18
60918;BME280;46792;38.854;-9.384;2022-11-18T07:06:45;99565.72;;;12.88;84.29
60918;BME280;46792;38.854;-9.384;2022-11-18T07:08:46;99566.81;;;12.87;84.30
60918;BME280;46792;38.854;-9.384;2022-11-18T07:10:53;99578.97;;;12.95;85.91
60918;BME280;46792;38.854;-9.384;2022-11-18T07:12:53;99576.22;;;13.00;86.54
60918;BME280;46792;38.854;-9.384;2022-11-18T07:14:54;99580.91;;;12.89;87.86
60918;BME280;46792;38.854;-9.384;2022-11-18T07:16:55;99590.38;;;12.86;87.10
60918;BME280;46792;38.854;-9.384;2022-11-18T07:18:55;99583.06;;;12.87;86.21
60918;BME280;46792;38.854;-9.384;2022-11-18T07:20:56;99587.41;;;12.88;86.24
60918;BME280;46792;38.854;-9.384;2022-11-18T07:22:56;99585.53;;;12.83;85.60
60918;BME280;46792;38.854;-9.384;2022-11-18T07:24:57;99590.44;;;12.76;85.43
60918;BME280;46792;38.854;-9.384;2022-11-18T07:26:58;99578.81;;;12.65;85.73
60918;BME280;46792;38.854;-9.384;2022-11-18T07:28:58;99587.22;;;12.58;85.78
60918;BME280;46792;38.854;-9.384;2022-11-18T07:31:19;99594.28;;;12.59;86.28
60918;BME280;46792;38.854;-9.384;2022-11-18T07:33:20;99598.63;;;12.55;87.69
60918;BME280;46792;38.854;-9.384;2022-11-18T07:35:21;99593.47;;;12.59;87.70
60918;BME280;46792;38.854;-9.384;2022-11-18T07:37:21;99598.91;;;12.59;86.95
60918;BME280;46792;38.854;-9.384;2022-11-18T07:46:56;99614.59;;;12.57;85.46
60918;BME280;46792;38.854;-9.384;2022-11-18T07:51:38;99628.88;;;12.78;82.35
60918;BME280;46792;38.854;-9.384;2022-11-18T07:53:39;99639.41;;;12.90;80.09
60918;BME280;46792;38.854;-9.384;2022-11-18T07:55:39;99631.28;;;12.90;80.34
60918;BME280;46792;38.854;-9.384;2022-11-18T07:57:40;99621.78;;;12.92;80.82
60918;BME280;46792;38.854;-9.384;2022-11-18T07:59:59;99638.34;;;12.86;80.73
60918;BME280;46792;38.854;-9.384;2022-11-18T08:02:00;99643.75;;;12.91;79.96
60918;BME280;46792;38.854;-9.384;2022-11-18T08:04:06;99647.00;;;12.88;80.30
60918;BME280;46792;38.854;-9.384;2022-11-18T08:06:25;99648.63;;;12.84;80.52
60918;BME280;46792;38.854;-9.384;2022-11-18T08:08:26;99651.34;;;12.89;80.07
60918;BME280;46792;38.854;-9.384;2022-11-18T08:10:27;99659.47;;;12.84;80.74
60918;BME280;46792;38.854;-9.384;2022-11-18T08:12:28;99657.31;;;12.81;81.47
60918;BME280;46792;38.854;-9.384;2022-11-18T08:14:30;99661.63;;;12.87;81.98
60918;BME280;46792;38.854;-9.384;2022-11-18T08:16:31;99667.59;;;12.84;82.38
60918;BME280;46792;38.854;-9.384;2022-11-18T08:18:31;99660.03;;;12.81;82.29
60918;BME280;46792;38.854;-9.384;2022-11-18T08:20:35;99670.00;;;12.96;82.36
60918;BME280;46792;38.854;-9.384;2022-11-18T08:22:35;99680.53;;;13.02;82.82
60918;BME280;46792;38.854;-9.384;2022-11-18T08:24:36;99678.06;;;13.11;82.46
60918;BME280;46792;38.854;-9.384;2022-11-18T08:26:36;99677.53;;;13.09;81.75
60918;BME280;46792;38.854;-9.384;2022-11-18T08:28:38;99675.13;;;13.02;81.79
60918;BME280;46792;38.854;-9.384;2022-11-18T08:30:39;99684.03;;;13.13;81.27
60918;BME280;46792;38.854;-9.384;2022-11-18T08:32:40;99689.75;;;13.06;81.03
60918;BME280;46792;38.854;-9.384;2022-11-18T08:34:41;99688.63;;;13.07;81.17
60918;BME280;46792;38.854;-9.384;2022-11-18T08:36:41;99689.47;;;13.08;81.63
60918;BME280;46792;38.854;-9.384;2022-11-18T08:38:42;99688.94;;;13.06;81.69
60918;BME280;46792;38.854;-9.384;2022-11-18T08:40:45;99696.53;;;13.04;81.87
60918;BME280;46792;38.854;-9.384;2022-11-18T08:42:49;99693.25;;;13.07;82.05
60918;BME280;46792;38.854;-9.384;2022-11-18T08:44:50;99699.47;;;13.13;81.29
60918;BME280;46792;38.854;-9.384;2022-11-18T08:46:51;99710.59;;;13.11;79.55
60918;BME280;46792;38.854;-9.384;2022-11-18T08:48:51;99691.34;;;13.07;77.57
60918;BME280;46792;38.854;-9.384;2022-11-18T08:50:52;99718.38;;;13.33;76.19
60918;BME280;46792;38.854;-9.384;2022-11-18T08:52:54;99718.94;;;13.25;75.79
60918;BME280;46792;38.854;-9.384;2022-11-18T08:54:54;99719.72;;;13.36;76.04
60918;BME280;46792;38.854;-9.384;2022-11-18T08:56:55;99729.75;;;13.41;76.17
60918;BME280;46792;38.854;-9.384;2022-11-18T08:58:55;99724.84;;;13.43;77.00
60918;BME280;46792;38.854;-9.384;2022-11-18T09:00:56;99722.13;;;13.48;76.96
60918;BME280;46792;38.854;-9.384;2022-11-18T09:02:57;99724.00;;;13.52;74.76
60918;BME280;46792;38.854;-9.384;2022-11-18T09:04:57;99737.53;;;13.58;75.42
60918;BME280;46792;38.854;-9.384;2022-11-18T09:06:58;99738.00;;;13.75;75.65
60918;BME280;46792;38.854;-9.384;2022-11-18T09:08:58;99743.91;;;13.82;75.49
60918;BME280;46792;38.854;-9.384;2022-11-18T09:11:07;99735.75;;;13.88;76.71
60918;BME280;46792;38.854;-9.384;2022-11-18T09:13:08;99753.34;;;13.90;76.72
60918;BME280;46792;38.854;-9.384;2022-11-18T09:15:09;99754.72;;;13.93;78.92
60918;BME280;46792;38.854;-9.384;2022-11-18T09:17:10;99753.66;;;13.89;79.65
60918;BME280;46792;38.854;-9.384;2022-11-18T09:19:11;99761.06;;;13.73;80.70
60918;BME280;46792;38.854;-9.384;2022-11-18T09:21:11;99760.88;;;13.59;80.76
60918;BME280;46792;38.854;-9.384;2022-11-18T09:23:12;99762.78;;;13.53;80.09
60918;BME280;46792;38.854;-9.384;2022-11-18T09:25:16;99770.31;;;13.66;80.24
60918;BME280;46792;38.854;-9.384;2022-11-18T09:27:19;99769.50;;;13.66;80.89
60918;BME280;46792;38.854;-9.384;2022-11-18T09:29:20;99767.84;;;13.70;81.33
60918;BME280;46792;38.854;-9.384;2022-11-18T09:31:25;99763.47;;;13.79;81.67
60918;BME280;46792;38.854;-9.384;2022-11-18T09:33:26;99773.44;;;13.89;82.42
60918;BME280;46792;38.854;-9.384;2022-11-18T09:35:28;99780.44;;;14.01;81.21
60918;BME280;46792;38.854;-9.384;2022-11-18T09:37:29;99780.13;;;14.07;80.02
60918;BME280;46792;38.854;-9.384;2022-11-18T09:39:29;99779.19;;;14.22;80.74
60918;BME280;46792;38.854;-9.384;2022-11-18T09:41:46;99788.84;;;14.39;78.61
60918;BME280;46792;38.854;-9.384;2022-11-18T09:43:56;99773.91;;;14.41;78.19
60918;BME280;46792;38.854;-9.384;2022-11-18T09:46:05;99783.38;;;14.49;76.92
60918;BME280;46792;38.854;-9.384;2022-11-18T09:48:15;99795.06;;;14.44;78.42
60918;BME280;46792;38.854;-9.384;2022-11-18T09:50:21;99794.25;;;14.44;77.03
60918;BME280;46792;38.854;-9.384;2022-11-18T09:52:30;99779.88;;;14.43;77.11
60918;BME280;46792;38.854;-9.384;2022-11-18T09:54:34;99799.47;;;14.35;74.62
60918;BME280;46792;38.854;-9.384;2022-11-18T09:56:35;99795.75;;;14.26;76.45
60918;BME280;46792;38.854;-9.384;2022-11-18T09:58:36;99785.78;;;14.16;78.96
60918;BME280;46792;38.854;-9.384;2022-11-18T10:00:44;99792.31;;;14.15;81.37
60918;BME280;46792;38.854;-9.384;2022-11-18T10:02:59;99799.84;;;14.23;81.94
60918;BME280;46792;38.854;-9.384;2022-11-18T10:05:13;99805.88;;;14.15;80.20
60918;BME280;46792;38.854;-9.384;2022-11-18T10:07:41;99810.53;;;14.04;78.14
60918;BME280;46792;38.854;-9.384;2022-11-18T10:09:43;99806.50;;;14.02;77.43
60918;BME280;46792;38.854;-9.384;2022-11-18T10:23:58;99821.59;;;14.58;71.38
60918;BME280;46792;38.854;-9.384;2022-11-18T10:26:00;99811.56;;;14.53;71.25
60918;BME280;46792;38.854;-9.384;2022-11-18T10:28:27;99814.78;;;14.60;72.63
60918;BME280;46792;38.854;-9.384;2022-11-18T10:30:31;99816.63;;;14.70;73.35
60918;BME280;46792;38.854;-9.384;2022-11-18T10:32:31;99815.34;;;14.57;71.57
60918;BME280;46792;38.854;-9.384;2022-11-18T10:34:34;99818.63;;;14.54;70.64
60918;BME280;46792;38.854;-9.384;2022-11-18T10:36:57;99826.41;;;14.66;69.98
60918;BME280;46792;38.854;-9.384;2022-11-18T10:41:08;99826.50;;;14.90;70.83
60918;BME280;46792;38.854;-9.384;2022-11-18T10:43:11;99822.94;;;14.95;70.16
60918;BME280;46792;38.854;-9.384;2022-11-18T10:47:26;99833.38;;;14.83;69.75
60918;BME280;46792;38.854;-9.384;2022-11-18T10:49:37;99829.53;;;14.89;70.86
60918;BME280;46792;38.854;-9.384;2022-11-18T10:51:43;99822.19;;;14.84;68.25
60918;BME280;46792;38.854;-9.384;2022-11-18T10:53:44;99827.25;;;14.96;68.81
60918;BME280;46792;38.854;-9.384;2022-11-18T10:55:56;99815.22;;;15.08;70.08
60918;BME280;46792;38.854;-9.384;2022-11-18T10:58:16;99829.09;;;15.06;76.97
60918;BME280;46792;38.854;-9.384;2022-11-18T11:02:41;99838.34;;;15.05;78.21
60918;BME280;46792;38.854;-9.384;2022-11-18T11:04:46;99829.47;;;14.94;76.42
60918;BME280;46792;38.854;-9.384;2022-11-18T11:06:47;99841.13;;;15.00;75.74
60918;BME280;46792;38.854;-9.384;2022-11-18T11:08:53;99843.00;;;14.99;72.74
60918;BME280;46792;38.854;-9.384;2022-11-18T11:10:58;99833.19;;;15.03;71.92
60918;BME280;46792;38.854;-9.384;2022-11-18T11:13:13;99835.56;;;15.10;73.43
60918;BME280;46792;38.854;-9.384;2022-11-18T11:15:40;99837.91;;;15.22;74.79
60918;BME280;46792;38.854;-9.384;2022-11-18T11:17:52;99834.09;;;15.23;75.77
60918;BME280;46792;38.854;-9.384;2022-11-18T11:20:22;99824.13;;;15.13;76.33
60918;BME280;46792;38.854;-9.384;2022-11-18T11:22:23;99843.34;;;14.93;75.41
60918;BME280;46792;38.854;-9.384;2022-11-18T11:24:25;99841.06;;;15.05;76.04
60918;BME280;46792;38.854;-9.384;2022-11-18T11:26:35;99829.22;;;15.20;77.33
60918;BME280;46792;38.854;-9.384;2022-11-18T11:28:44;99830.09;;;15.15;75.92
60918;BME280;46792;38.854;-9.384;2022-11-18T11:38:11;99839.66;;;15.37;68.74
60918;BME280;46792;38.854;-9.384;2022-11-18T11:46:58;99824.31;;;15.46;69.36
60918;BME280;46792;38.854;-9.384;2022-11-18T11:49:29;99827.44;;;15.59;69.48
60918;BME280;46792;38.854;-9.384;2022-11-18T11:51:53;99818.00;;;15.51;67.32
60918;BME280;46792;38.854;-9.384;2022-11-18T11:56:37;99814.63;;;15.59;66.13
60918;BME280;46792;38.854;-9.384;2022-11-18T12:01:23;99812.56;;;15.51;66.74
60918;BME280;46792;38.854;-9.384;2022-11-18T12:03:45;99822.03;;;15.54;66.23
60918;BME280;46792;38.854;-9.384;2022-11-18T12:05:46;99821.41;;;15.62;67.23
60918;BME280;46792;38.854;-9.384;2022-11-18T12:07:56;99809.50;;;15.58;67.59
60918;BME280;46792;38.854;-9.384;2022-11-18T12:10:15;99828.81;;;15.56;66.67
60918;BME280;46792;38.854;-9.384;2022-11-18T12:12:44;99808.38;;;15.59;67.21
60918;BME280;46792;38.854;-9.384;2022-11-18T12:14:52;99802.47;;;15.51;66.59
60918;BME280;46792;38.854;-9.384;2022-11-18T12:17:06;99805.38;;;15.60;68.60
60918;BME280;46792;38.854;-9.384;2022-11-18T12:19:14;99791.66;;;15.71;67.94
60918;BME280;46792;38.854;-9.384;2022-11-18T12:26:33;99791.44;;;15.18;66.38
60918;BME280;46792;38.854;-9.384;2022-11-18T12:30:37;99804.00;;;15.39;66.22
60918;BME280;46792;38.854;-9.384;2022-11-18T12:32:39;99806.06;;;15.47;66.68
60918;BME280;46792;38.854;-9.384;2022-11-18T12:34:58;99793.59;;;15.65;66.13